createdAt,value
2019-03-28T00:09:11.075Z,23.3
2019-03-28T00:19:10.284Z,23.3
2019-03-28T00:29:09.495Z,23.3
2019-03-28T00:39:08.707Z,23.3
2019-03-28T00:49:07.920Z,23.3
2019-03-28T00:59:07.125Z,23.3
2019-03-28T01:09:06.337Z,23.2
2019-03-28T01:19:05.545Z,23.2
2019-03-28T01:29:04.756Z,23.2
2019-03-28T01:39:03.965Z,23.2
2019-03-28T01:49:03.744Z,23.1
2019-03-28T01:59:02.384Z,23.1
2019-03-28T02:09:01.594Z,23.1
2019-03-28T02:19:00.802Z,23.1
2019-03-28T02:29:00.013Z,23.1
2019-03-28T02:38:59.222Z,23.1
2019-03-28T02:48:58.433Z,23.2
2019-03-28T02:58:57.645Z,23.2
2019-03-28T03:08:56.850Z,23.2
2019-03-28T03:18:56.067Z,23.1
2019-03-28T03:28:55.272Z,23.1
2019-03-28T03:38:54.478Z,23.1
2019-03-28T03:48:53.822Z,23.1
2019-03-28T03:58:52.898Z,23
2019-03-28T04:10:40.463Z,23.1
2019-03-28T04:20:39.677Z,23.1
2019-03-28T04:30:38.900Z,22.9
2019-03-28T04:40:38.091Z,22.9
2019-03-28T04:50:37.302Z,23.1
2019-03-28T05:00:36.511Z,23
2019-03-28T05:10:35.771Z,23
2019-03-28T05:20:35.058Z,22.9
2019-03-28T05:30:34.349Z,23
2019-03-28T05:40:33.645Z,23
2019-03-28T05:50:32.931Z,22.9
2019-03-28T06:00:32.219Z,23
2019-03-28T06:10:31.428Z,23
2019-03-28T06:20:30.637Z,23.1
2019-03-28T06:30:29.846Z,23.2
2019-03-28T06:40:29.055Z,23.1
2019-03-28T06:50:28.265Z,23.3
2019-03-28T07:00:27.476Z,23.3
2019-03-28T07:10:26.683Z,23.3
2019-03-28T07:20:26.421Z,23.3
2019-03-28T07:30:25.103Z,23.5
2019-03-28T07:40:24.309Z,23.7
2019-03-28T07:50:23.529Z,23.9
2019-03-28T08:00:22.727Z,24
2019-03-28T08:10:21.935Z,24.2
2019-03-28T08:20:21.147Z,24.3
2019-03-28T08:30:20.356Z,24.4
2019-03-28T08:40:19.565Z,24.5
2019-03-28T08:50:18.778Z,24.6
2019-03-28T09:10:17.195Z,24.6
2019-03-28T09:20:16.420Z,24.6
2019-03-28T09:30:15.615Z,24.7
2019-03-28T09:40:15.033Z,24.7
2019-03-28T09:50:14.033Z,24.6
2019-03-28T10:00:13.243Z,24.6
2019-03-28T10:10:12.451Z,24.7
2019-03-28T10:20:11.661Z,24.7
2019-03-28T10:30:10.869Z,24.7
2019-03-28T10:40:10.080Z,24.6
2019-03-28T10:50:09.289Z,24.6
2019-03-28T11:00:08.496Z,24.7
2019-03-28T11:10:07.707Z,24.6
2019-03-28T11:20:06.914Z,24.6
2019-03-28T11:30:06.123Z,24.6
2019-03-28T11:40:08.791Z,24.5
2019-03-28T11:50:04.542Z,24.5
2019-03-28T12:00:03.754Z,24.4
2019-03-28T12:10:02.959Z,24.3
2019-03-28T12:20:02.171Z,24.2
2019-03-28T12:30:01.374Z,24.1
2019-03-28T12:40:00.671Z,23.9
2019-03-28T12:49:59.793Z,23.9
2019-03-28T12:59:58.998Z,23.8
2019-03-28T13:09:58.217Z,23.8
2019-03-28T13:19:57.416Z,23.8
2019-03-28T13:29:56.624Z,23.7
2019-03-28T13:39:55.833Z,23.6
2019-03-28T13:49:55.039Z,23.6
2019-03-28T13:59:54.247Z,23.6
2019-03-28T14:09:53.465Z,23.5
2019-03-28T14:19:52.664Z,23.5
2019-03-28T14:29:51.874Z,23.4
2019-03-28T14:39:51.081Z,23.4
2019-03-28T14:49:50.302Z,23.4
2019-03-28T14:59:49.499Z,23.4
2019-03-28T15:09:49.158Z,23.3
2019-03-28T15:19:48.367Z,23.3
2019-03-28T15:29:47.579Z,23.3
2019-03-28T15:39:46.786Z,23.3
2019-03-28T15:49:45.994Z,23.4
2019-03-28T15:59:45.204Z,23.3
2019-03-28T16:09:44.410Z,23.3
2019-03-28T16:19:45.068Z,23.3
2019-03-28T16:29:42.828Z,23.3
2019-03-28T16:39:42.182Z,23.3
2019-03-28T16:49:41.389Z,23.3
2019-03-28T16:59:40.600Z,23.3
2019-03-28T17:09:39.812Z,23.2
2019-03-28T17:19:39.021Z,23.2
2019-03-28T17:29:38.238Z,23.2
2019-03-28T17:39:37.456Z,23.2
2019-03-28T17:53:58.240Z,23.1
2019-03-28T18:03:57.447Z,23.1
2019-03-28T18:13:57.325Z,23.1
2019-03-28T18:23:55.866Z,23.3
2019-03-28T18:33:55.078Z,23.3
2019-03-28T18:43:54.342Z,23.2
2019-03-28T18:53:53.538Z,23.2
2019-03-28T19:03:52.842Z,23.2
2019-03-28T19:13:52.136Z,23.2
2019-03-28T19:23:51.425Z,23.3
2019-03-28T19:33:50.722Z,23.6
2019-03-28T19:43:50.101Z,23.7
2019-03-28T19:53:49.231Z,23.6
2019-03-28T20:03:48.449Z,23.6
2019-03-28T20:13:47.655Z,23.4
2019-03-28T20:23:46.871Z,23.4
2019-03-28T20:33:46.082Z,23.4
2019-03-28T20:43:45.297Z,23.4
2019-03-28T20:53:44.510Z,23.4
2019-03-28T21:03:43.723Z,23.4
2019-03-28T21:13:42.937Z,23.4
2019-03-28T21:23:43.338Z,23.4
2019-03-28T21:33:42.548Z,23.4
2019-03-28T21:43:41.757Z,23.4
2019-03-28T21:53:40.972Z,23.4
2019-03-28T22:03:40.180Z,23.4
2019-03-28T22:13:39.394Z,23.3
2019-03-28T22:23:38.604Z,23.3
2019-03-28T22:33:37.816Z,23.3
2019-03-28T22:43:38.707Z,23.3
2019-03-28T22:53:36.236Z,23.3
2019-03-28T23:03:35.447Z,23.3
2019-03-28T23:13:34.670Z,23.3
2019-03-28T23:23:33.870Z,23.3
2019-03-28T23:33:33.079Z,23.3
2019-03-28T23:43:32.291Z,23.4
2019-03-28T23:53:31.501Z,23.3
